sensor_id;sensor_type;location;lat;lon;timestamp;pressure;altitude;pressure_sealevel;temperature;humidity
27984;BME280;15317;50.360;8.726;2023-09-07T00:03:11;99933.97;;;16.72;100.00
27984;BME280;15317;50.360;8.726;2023-09-07T00:08:14;99932.38;;;16.63;100.00
27984;BME280;15317;50.360;8.726;2023-09-07T00:13:18;99927.69;;;16.49;100.00
27984;BME280;15317;50.360;8.726;2023-09-07T00:18:23;99930.69;;;16.39;100.00
27984;BME280;15317;50.360;8.726;2023-09-07T00:23:27;99930.31;;;16.28;100.00
27984;BME280;15317;50.360;8.726;2023-09-07T00:28:30;99930.75;;;16.16;100.00
27984;BME280;15317;50.360;8.726;2023-09-07T00:33:36;99934.72;;;16.14;100.00
27984;BME280;15317;50.360;8.726;2023-09-07T00:38:40;99929.69;;;16.17;100.00
27984;BME280;15317;50.360;8.726;2023-09-07T00:43:43;99930.00;;;16.23;100.00
27984;BME280;15317;50.360;8.726;2023-09-07T00:48:48;99925.56;;;16.22;100.00
27984;BME280;15317;50.360;8.726;2023-09-07T00:53:52;99920.09;;;16.22;100.00
27984;BME280;15317;50.360;8.726;2023-09-07T00:58:56;99921.22;;;16.27;100.00
27984;BME280;15317;50.360;8.726;2023-09-07T01:04:02;99926.53;;;16.29;100.00
27984;BME280;15317;50.360;8.726;2023-09-07T01:09:11;99923.25;;;16.48;100.00
27984;BME280;15317;50.360;8.726;2023-09-07T01:14:17;99913.09;;;16.71;100.00
27984;BME280;15317;50.360;8.726;2023-09-07T01:19:22;99902.94;;;16.86;100.00
27984;BME280;15317;50.360;8.726;2023-09-07T01:24:28;99892.72;;;16.80;100.00
27984;BME280;15317;50.360;8.726;2023-09-07T01:29:32;99891.44;;;16.76;100.00
27984;BME280;15317;50.360;8.726;2023-09-07T01:34:36;99898.03;;;16.67;100.00
27984;BME280;15317;50.360;8.726;2023-09-07T01:39:44;99894.25;;;16.68;100.00
27984;BME280;15317;50.360;8.726;2023-09-07T01:44:48;99892.28;;;16.62;100.00
27984;BME280;15317;50.360;8.726;2023-09-07T01:49:51;99898.09;;;16.59;100.00
27984;BME280;15317;50.360;8.726;2023-09-07T01:54:56;99906.50;;;16.43;100.00
27984;BME280;15317;50.360;8.726;2023-09-07T02:00:00;99911.41;;;16.33;100.00
27984;BME280;15317;50.360;8.726;2023-09-07T02:05:03;99909.34;;;16.35;100.00
27984;BME280;15317;50.360;8.726;2023-09-07T02:10:09;99904.50;;;16.22;100.00
27984;BME280;15317;50.360;8.726;2023-09-07T02:15:13;99909.38;;;16.12;100.00
27984;BME280;15317;50.360;8.726;2023-09-07T02:20:16;99916.34;;;16.00;100.00
27984;BME280;15317;50.360;8.726;2023-09-07T02:25:24;99905.50;;;16.06;100.00
27984;BME280;15317;50.360;8.726;2023-09-07T02:30:27;99905.78;;;16.11;100.00
27984;BME280;15317;50.360;8.726;2023-09-07T02:35:30;99902.75;;;16.06;100.00
27984;BME280;15317;50.360;8.726;2023-09-07T02:40:41;99904.34;;;16.01;100.00
27984;BME280;15317;50.360;8.726;2023-09-07T02:45:45;99903.13;;;16.03;100.00
27984;BME280;15317;50.360;8.726;2023-09-07T02:50:48;99902.81;;;15.98;100.00
27984;BME280;15317;50.360;8.726;2023-09-07T02:55:54;99895.41;;;15.84;100.00
27984;BME280;15317;50.360;8.726;2023-09-07T03:00:58;99898.22;;;15.76;100.00
27984;BME280;15317;50.360;8.726;2023-09-07T03:06:07;99893.84;;;15.67;100.00
27984;BME280;15317;50.360;8.726;2023-09-07T03:11:13;99896.63;;;15.59;100.00
27984;BME280;15317;50.360;8.726;2023-09-07T03:16:16;99899.38;;;15.51;100.00
27984;BME280;15317;50.360;8.726;2023-09-07T03:21:20;99897.38;;;15.53;100.00
27984;BME280;15317;50.360;8.726;2023-09-07T03:26:28;99892.13;;;15.66;100.00
27984;BME280;15317;50.360;8.726;2023-09-07T03:31:32;99891.63;;;15.85;100.00
27984;BME280;15317;50.360;8.726;2023-09-07T03:36:35;99894.19;;;15.87;100.00
27984;BME280;15317;50.360;8.726;2023-09-07T03:41:40;99905.94;;;15.72;100.00
27984;BME280;15317;50.360;8.726;2023-09-07T03:46:43;99905.47;;;15.69;100.00
27984;BME280;15317;50.360;8.726;2023-09-07T03:51:47;99904.78;;;15.67;100.00
27984;BME280;15317;50.360;8.726;2023-09-07T03:56:52;99915.19;;;15.71;100.00
27984;BME280;15317;50.360;8.726;2023-09-07T04:01:55;99911.59;;;15.71;100.00
27984;BME280;15317;50.360;8.726;2023-09-07T04:06:59;99912.84;;;15.68;100.00
27984;BME280;15317;50.360;8.726;2023-09-07T04:12:04;99912.84;;;15.68;100.00
27984;BME280;15317;50.360;8.726;2023-09-07T04:17:08;99918.31;;;15.68;100.00
27984;BME280;15317;50.360;8.726;2023-09-07T04:22:12;99912.84;;;15.68;100.00
27984;BME280;15317;50.360;8.726;2023-09-07T04:27:17;99912.31;;;15.65;100.00
27984;BME280;15317;50.360;8.726;2023-09-07T04:32:20;99911.00;;;15.61;100.00
27984;BME280;15317;50.360;8.726;2023-09-07T04:37:23;99915.13;;;15.57;100.00
27984;BME280;15317;50.360;8.726;2023-09-07T04:42:28;99919.97;;;15.47;100.00
27984;BME280;15317;50.360;8.726;2023-09-07T04:47:32;99920.44;;;15.27;100.00
27984;BME280;15317;50.360;8.726;2023-09-07T04:52:36;99934.50;;;15.16;100.00
27984;BME280;15317;50.360;8.726;2023-09-07T04:57:42;99941.91;;;15.08;100.00
27984;BME280;15317;50.360;8.726;2023-09-07T05:02:45;99934.72;;;15.07;100.00
27984;BME280;15317;50.360;8.726;2023-09-07T05:07:49;99943.94;;;15.06;100.00
27984;BME280;15317;50.360;8.726;2023-09-07T05:12:54;99946.53;;;14.99;100.00
27984;BME280;15317;50.360;8.726;2023-09-07T05:17:57;99944.28;;;15.02;100.00
27984;BME280;15317;50.360;8.726;2023-09-07T05:23:01;99951.31;;;15.05;100.00
27984;BME280;15317;50.360;8.726;2023-09-07T05:28:07;99951.13;;;15.07;100.00
27984;BME280;15317;50.360;8.726;2023-09-07T05:33:13;99966.84;;;15.13;100.00
27984;BME280;15317;50.360;8.726;2023-09-07T05:38:17;99969.00;;;15.25;100.00
27984;BME280;15317;50.360;8.726;2023-09-07T05:43:22;99966.88;;;15.35;100.00
27984;BME280;15317;50.360;8.726;2023-09-07T05:48:25;99966.50;;;15.47;100.00
27984;BME280;15317;50.360;8.726;2023-09-07T05:53:28;99969.88;;;15.57;100.00
27984;BME280;15317;50.360;8.726;2023-09-07T05:58:33;99966.06;;;15.66;100.00
27984;BME280;15317;50.360;8.726;2023-09-07T06:03:37;99961.88;;;15.78;100.00
27984;BME280;15317;50.360;8.726;2023-09-07T06:08:42;99969.59;;;15.97;100.00
27984;BME280;15317;50.360;8.726;2023-09-07T06:13:47;99962.22;;;16.20;100.00
27984;BME280;15317;50.360;8.726;2023-09-07T06:18:51;99967.56;;;16.37;100.00
27984;BME280;15317;50.360;8.726;2023-09-07T06:23:54;99967.91;;;16.56;100.00
27984;BME280;15317;50.360;8.726;2023-09-07T06:28:59;99972.88;;;16.76;100.00
27984;BME280;15317;50.360;8.726;2023-09-07T06:34:02;99973.16;;;16.95;100.00
27984;BME280;15317;50.360;8.726;2023-09-07T06:39:06;99972.22;;;17.18;100.00
27984;BME280;15317;50.360;8.726;2023-09-07T06:44:11;99976.25;;;17.36;100.00
27984;BME280;15317;50.360;8.726;2023-09-07T06:49:14;99981.97;;;17.56;100.00
27984;BME280;15317;50.360;8.726;2023-09-07T06:54:18;99980.59;;;17.82;100.00
27984;BME280;15317;50.360;8.726;2023-09-07T06:59:23;99988.22;;;18.22;100.00
27984;BME280;15317;50.360;8.726;2023-09-07T07:04:27;99983.44;;;18.80;100.00
27984;BME280;15317;50.360;8.726;2023-09-07T07:09:30;99984.63;;;19.87;100.00
27984;BME280;15317;50.360;8.726;2023-09-07T07:14:35;99994.06;;;21.05;95.12
27984;BME280;15317;50.360;8.726;2023-09-07T07:19:39;99994.06;;;22.20;80.33
27984;BME280;15317;50.360;8.726;2023-09-07T07:24:43;99993.66;;;23.59;72.54
27984;BME280;15317;50.360;8.726;2023-09-07T07:29:50;100001.69;;;24.68;69.16
27984;BME280;15317;50.360;8.726;2023-09-07T07:34:54;100002.31;;;25.40;64.42
27984;BME280;15317;50.360;8.726;2023-09-07T07:39:57;100010.78;;;25.69;63.43
27984;BME280;15317;50.360;8.726;2023-09-07T07:45:03;99998.56;;;26.55;63.75
27984;BME280;15317;50.360;8.726;2023-09-07T07:50:07;99999.94;;;27.02;55.61
27984;BME280;15317;50.360;8.726;2023-09-07T07:55:11;100003.28;;;26.38;57.38
27984;BME280;15317;50.360;8.726;2023-09-07T08:00:16;100004.81;;;26.79;54.99
27984;BME280;15317;50.360;8.726;2023-09-07T08:05:21;100014.84;;;27.30;54.35
27984;BME280;15317;50.360;8.726;2023-09-07T08:10:25;100021.63;;;27.72;49.46
27984;BME280;15317;50.360;8.726;2023-09-07T08:15:34;100015.69;;;27.47;55.76
27984;BME280;15317;50.360;8.726;2023-09-07T08:20:38;100009.56;;;27.88;56.12
27984;BME280;15317;50.360;8.726;2023-09-07T08:25:43;100011.44;;;27.23;55.12
27984;BME280;15317;50.360;8.726;2023-09-07T08:30:52;100002.09;;;27.34;51.89
27984;BME280;15317;50.360;8.726;2023-09-07T08:35:57;100005.25;;;28.03;53.37
27984;BME280;15317;50.360;8.726;2023-09-07T08:41:03;100003.84;;;28.22;50.59
27984;BME280;15317;50.360;8.726;2023-09-07T08:46:14;99999.81;;;28.40;51.77
27984;BME280;15317;50.360;8.726;2023-09-07T08:51:18;100002.84;;;28.11;51.74
27984;BME280;15317;50.360;8.726;2023-09-07T08:56:22;99998.63;;;28.09;52.82
27984;BME280;15317;50.360;8.726;2023-09-07T09:01:27;100005.16;;;28.73;51.18
27984;BME280;15317;50.360;8.726;2023-09-07T09:06:33;99997.38;;;30.06;46.05
27984;BME280;15317;50.360;8.726;2023-09-07T09:11:37;100001.22;;;29.01;50.77
27984;BME280;15317;50.360;8.726;2023-09-07T09:16:46;100000.50;;;28.79;46.89
27984;BME280;15317;50.360;8.726;2023-09-07T09:21:51;99999.41;;;29.22;51.29
27984;BME280;15317;50.360;8.726;2023-09-07T09:26:54;99995.09;;;29.04;51.89
27984;BME280;15317;50.360;8.726;2023-09-07T09:32:02;99985.84;;;28.98;47.38
27984;BME280;15317;50.360;8.726;2023-09-07T09:37:13;99989.13;;;29.27;48.79
27984;BME280;15317;50.360;8.726;2023-09-07T09:42:17;99971.66;;;29.10;48.86
27984;BME280;15317;50.360;8.726;2023-09-07T09:47:22;99975.53;;;30.08;45.75
27984;BME280;15317;50.360;8.726;2023-09-07T09:52:27;99981.19;;;29.56;46.62
27984;BME280;15317;50.360;8.726;2023-09-07T09:57:31;99974.28;;;29.79;47.26
27984;BME280;15317;50.360;8.726;2023-09-07T10:02:38;99967.78;;;30.71;44.24
27984;BME280;15317;50.360;8.726;2023-09-07T10:07:44;99967.78;;;30.86;47.18
27984;BME280;15317;50.360;8.726;2023-09-07T10:12:52;99965.22;;;30.34;47.11
27984;BME280;15317;50.360;8.726;2023-09-07T10:18:05;99965.13;;;29.99;43.78
27984;BME280;15317;50.360;8.726;2023-09-07T10:23:08;99948.34;;;30.04;41.57
27984;BME280;15317;50.360;8.726;2023-09-07T10:28:19;99951.25;;;30.49;43.09
27984;BME280;15317;50.360;8.726;2023-09-07T10:33:24;99945.91;;;30.58;40.52
27984;BME280;15317;50.360;8.726;2023-09-07T10:38:30;99944.22;;;31.13;42.77
27984;BME280;15317;50.360;8.726;2023-09-07T10:43:34;99939.19;;;30.89;41.04
27984;BME280;15317;50.360;8.726;2023-09-07T10:48:39;99927.38;;;30.21;40.88
27984;BME280;15317;50.360;8.726;2023-09-07T10:53:43;99920.63;;;30.12;43.38
27984;BME280;15317;50.360;8.726;2023-09-07T10:58:47;99921.22;;;30.85;41.36
27984;BME280;15317;50.360;8.726;2023-09-07T11:03:55;99921.81;;;30.52;41.65
27984;BME280;15317;50.360;8.726;2023-09-07T11:08:59;99920.16;;;30.56;40.24
27984;BME280;15317;50.360;8.726;2023-09-07T11:14:03;99913.41;;;30.77;44.33
27984;BME280;15317;50.360;8.726;2023-09-07T11:19:08;99901.94;;;30.64;41.26
27984;BME280;15317;50.360;8.726;2023-09-07T11:24:12;99905.72;;;31.28;41.06
27984;BME280;15317;50.360;8.726;2023-09-07T11:29:16;99911.69;;;31.07;39.39
27984;BME280;15317;50.360;8.726;2023-09-07T11:34:22;99908.88;;;30.31;39.98
27984;BME280;15317;50.360;8.726;2023-09-07T11:39:26;99897.03;;;31.30;42.71
27984;BME280;15317;50.360;8.726;2023-09-07T11:44:30;99898.06;;;31.49;40.42
27984;BME280;15317;50.360;8.726;2023-09-07T11:49:35;99897.91;;;31.20;40.27
27984;BME280;15317;50.360;8.726;2023-09-07T11:54:38;99885.13;;;31.53;40.63
27984;BME280;15317;50.360;8.726;2023-09-07T11:59:42;99890.09;;;31.76;38.80
27984;BME280;15317;50.360;8.726;2023-09-07T12:05:01;99880.06;;;31.60;39.61
27984;BME280;15317;50.360;8.726;2023-09-07T12:10:06;99880.75;;;31.32;37.59
27984;BME280;15317;50.360;8.726;2023-09-07T12:15:12;99874.25;;;31.96;37.33
27984;BME280;15317;50.360;8.726;2023-09-07T12:20:17;99873.47;;;31.85;38.80
27984;BME280;15317;50.360;8.726;2023-09-07T12:25:20;99869.47;;;32.35;37.16
27984;BME280;15317;50.360;8.726;2023-09-07T12:30:24;99870.97;;;31.84;38.91
27984;BME280;15317;50.360;8.726;2023-09-07T12:35:29;99864.41;;;32.37;34.31
27984;BME280;15317;50.360;8.726;2023-09-07T12:40:33;99861.97;;;31.82;35.88
27984;BME280;15317;50.360;8.726;2023-09-07T12:45:37;99864.00;;;32.20;36.93
27984;BME280;15317;50.360;8.726;2023-09-07T12:50:46;99858.03;;;32.55;35.75
27984;BME280;15317;50.360;8.726;2023-09-07T12:55:50;99855.91;;;31.54;38.07
27984;BME280;15317;50.360;8.726;2023-09-07T13:00:54;99844.13;;;32.06;37.44
27984;BME280;15317;50.360;8.726;2023-09-07T13:05:59;99841.94;;;31.39;34.79
27984;BME280;15317;50.360;8.726;2023-09-07T13:11:02;99841.84;;;31.69;34.44
27984;BME280;15317;50.360;8.726;2023-09-07T13:16:05;99830.72;;;31.44;35.24
27984;BME280;15317;50.360;8.726;2023-09-07T13:21:10;99836.34;;;31.39;36.20
27984;BME280;15317;50.360;8.726;2023-09-07T13:26:13;99818.75;;;31.77;37.08
27984;BME280;15317;50.360;8.726;2023-09-07T13:31:17;99815.34;;;31.81;34.92
27984;BME280;15317;50.360;8.726;2023-09-07T13:36:22;99808.75;;;31.61;36.69
27984;BME280;15317;50.360;8.726;2023-09-07T13:41:29;99806.41;;;31.73;37.25
27984;BME280;15317;50.360;8.726;2023-09-07T13:46:32;99813.19;;;31.67;34.53
27984;BME280;15317;50.360;8.726;2023-09-07T13:51:37;99805.19;;;31.40;37.30
27984;BME280;15317;50.360;8.726;2023-09-07T13:56:41;99800.69;;;31.45;35.29
27984;BME280;15317;50.360;8.726;2023-09-07T14:01:47;99804.44;;;31.25;35.55
27984;BME280;15317;50.360;8.726;2023-09-07T14:06:52;99803.72;;;30.89;37.35
27984;BME280;15317;50.360;8.726;2023-09-07T14:11:56;99791.63;;;30.93;36.53
27984;BME280;15317;50.360;8.726;2023-09-07T14:16:59;99797.03;;;30.75;36.30
27984;BME280;15317;50.360;8.726;2023-09-07T14:22:04;99791.94;;;30.82;36.37
27984;BME280;15317;50.360;8.726;2023-09-07T14:27:08;99781.53;;;30.87;37.15
27984;BME280;15317;50.360;8.726;2023-09-07T14:32:12;99778.50;;;30.84;37.75
27984;BME280;15317;50.360;8.726;2023-09-07T14:37:17;99782.72;;;30.66;36.86
27984;BME280;15317;50.360;8.726;2023-09-07T14:42:21;99781.63;;;30.52;37.11
27984;BME280;15317;50.360;8.726;2023-09-07T14:47:24;99777.75;;;30.22;37.21
27984;BME280;15317;50.360;8.726;2023-09-07T14:52:30;99774.38;;;30.10;37.47
27984;BME280;15317;50.360;8.726;2023-09-07T14:57:34;99769.31;;;29.77;38.35
27984;BME280;15317;50.360;8.726;2023-09-07T15:02:38;99760.38;;;29.75;37.65
27984;BME280;15317;50.360;8.726;2023-09-07T15:07:44;99761.47;;;29.74;38.31
27984;BME280;15317;50.360;8.726;2023-09-07T15:12:47;99756.94;;;29.42;41.34
27984;BME280;15317;50.360;8.726;2023-09-07T15:17:51;99755.44;;;29.15;39.99
27984;BME280;15317;50.360;8.726;2023-09-07T15:22:56;99754.50;;;28.89;41.21
27984;BME280;15317;50.360;8.726;2023-09-07T15:28:01;99752.97;;;28.66;40.48
27984;BME280;15317;50.360;8.726;2023-09-07T15:33:04;99742.28;;;28.53;41.69
27984;BME280;15317;50.360;8.726;2023-09-07T15:38:10;99743.31;;;28.37;41.32
27984;BME280;15317;50.360;8.726;2023-09-07T15:43:13;99750.22;;;28.24;41.61
27984;BME280;15317;50.360;8.726;2023-09-07T15:48:17;99741.09;;;28.02;42.31
27984;BME280;15317;50.360;8.726;2023-09-07T15:53:22;99742.94;;;27.91;42.35
27984;BME280;15317;50.360;8.726;2023-09-07T15:58:25;99738.13;;;27.81;43.78
27984;BME280;15317;50.360;8.726;2023-09-07T16:03:29;99744.53;;;27.77;43.29
27984;BME280;15317;50.360;8.726;2023-09-07T16:08:34;99740.56;;;27.46;48.80
27984;BME280;15317;50.360;8.726;2023-09-07T16:13:37;99744.00;;;27.26;45.46
27984;BME280;15317;50.360;8.726;2023-09-07T16:18:42;99749.16;;;27.12;44.71
27984;BME280;15317;50.360;8.726;2023-09-07T16:23:49;99732.78;;;26.94;46.09
27984;BME280;15317;50.360;8.726;2023-09-07T16:28:53;99739.28;;;26.83;45.66
27984;BME280;15317;50.360;8.726;2023-09-07T16:33:56;99735.34;;;26.79;45.67
27984;BME280;15317;50.360;8.726;2023-09-07T16:39:05;99735.31;;;26.57;46.97
27984;BME280;15317;50.360;8.726;2023-09-07T16:44:08;99743.09;;;26.55;47.23
27984;BME280;15317;50.360;8.726;2023-09-07T16:49:12;99736.25;;;26.24;53.33
27984;BME280;15317;50.360;8.726;2023-09-07T16:54:18;99747.81;;;25.83;53.30
27984;BME280;15317;50.360;8.726;2023-09-07T16:59:21;99751.34;;;25.62;53.40
27984;BME280;15317;50.360;8.726;2023-09-07T17:04:45;99740.38;;;25.27;57.43
27984;BME280;15317;50.360;8.726;2023-09-07T17:09:50;99745.03;;;24.81;62.56
27984;BME280;15317;50.360;8.726;2023-09-07T17:14:53;99735.44;;;24.37;65.15
27984;BME280;15317;50.360;8.726;2023-09-07T17:19:58;99730.50;;;23.92;67.67
27984;BME280;15317;50.360;8.726;2023-09-07T17:25:04;99736.47;;;23.54;74.39
27984;BME280;15317;50.360;8.726;2023-09-07T17:30:07;99731.91;;;23.18;77.75
27984;BME280;15317;50.360;8.726;2023-09-07T17:35:11;99730.16;;;22.76;83.08
27984;BME280;15317;50.360;8.726;2023-09-07T17:40:16;99730.31;;;22.44;84.36
27984;BME280;15317;50.360;8.726;2023-09-07T17:45:19;99735.22;;;22.24;84.62
27984;BME280;15317;50.360;8.726;2023-09-07T17:50:23;99736.25;;;22.05;86.10
27984;BME280;15317;50.360;8.726;2023-09-07T17:55:27;99732.13;;;21.89;86.74
27984;BME280;15317;50.360;8.726;2023-09-07T18:00:31;99743.03;;;21.59;90.11
27984;BME280;15317;50.360;8.726;2023-09-07T18:05:35;99737.06;;;21.31;93.44
27984;BME280;15317;50.360;8.726;2023-09-07T18:10:39;99739.56;;;21.08;95.26
27984;BME280;15317;50.360;8.726;2023-09-07T18:15:43;99736.06;;;20.87;95.39
27984;BME280;15317;50.360;8.726;2023-09-07T18:20:46;99744.41;;;20.68;97.37
27984;BME280;15317;50.360;8.726;2023-09-07T18:25:51;99739.59;;;20.50;99.16
27984;BME280;15317;50.360;8.726;2023-09-07T18:30:54;99746.69;;;20.33;99.72
27984;BME280;15317;50.360;8.726;2023-09-07T18:36:00;99740.94;;;20.15;99.36
27984;BME280;15317;50.360;8.726;2023-09-07T18:41:04;99744.78;;;20.00;100.00
27984;BME280;15317;50.360;8.726;2023-09-07T18:46:08;99748.41;;;19.88;100.00
27984;BME280;15317;50.360;8.726;2023-09-07T18:51:12;99748.88;;;19.78;100.00
27984;BME280;15317;50.360;8.726;2023-09-07T18:56:16;99752.25;;;19.67;100.00
27984;BME280;15317;50.360;8.726;2023-09-07T19:01:20;99751.84;;;19.57;100.00
27984;BME280;15317;50.360;8.726;2023-09-07T19:06:23;99749.28;;;19.49;100.00
27984;BME280;15317;50.360;8.726;2023-09-07T19:11:28;99746.50;;;19.42;100.00
27984;BME280;15317;50.360;8.726;2023-09-07T19:16:32;99757.06;;;19.39;100.00
27984;BME280;15317;50.360;8.726;2023-09-07T19:21:35;99749.25;;;19.36;100.00
27984;BME280;15317;50.360;8.726;2023-09-07T19:26:40;99741.38;;;19.26;100.00
27984;BME280;15317;50.360;8.726;2023-09-07T19:31:44;99741.16;;;19.14;100.00
27984;BME280;15317;50.360;8.726;2023-09-07T19:36:48;99746.63;;;19.01;100.00
27984;BME280;15317;50.360;8.726;2023-09-07T19:41:52;99748.06;;;18.90;100.00
27984;BME280;15317;50.360;8.726;2023-09-07T19:46:58;99753.78;;;18.82;100.00
27984;BME280;15317;50.360;8.726;2023-09-07T19:52:02;99755.88;;;18.74;100.00
27984;BME280;15317;50.360;8.726;2023-09-07T19:57:07;99754.13;;;18.66;100.00
27984;BME280;15317;50.360;8.726;2023-09-07T20:02:10;99756.41;;;18.56;100.00
27984;BME280;15317;50.360;8.726;2023-09-07T20:07:14;99754.41;;;18.43;100.00
27984;BME280;15317;50.360;8.726;2023-09-07T20:12:18;99759.88;;;18.37;100.00
27984;BME280;15317;50.360;8.726;2023-09-07T20:17:22;99758.16;;;18.29;100.00
27984;BME280;15317;50.360;8.726;2023-09-07T20:22:25;99762.13;;;18.20;100.00
27984;BME280;15317;50.360;8.726;2023-09-07T20:27:31;99757.19;;;18.09;100.00
27984;BME280;15317;50.360;8.726;2023-09-07T20:32:34;99759.25;;;18.00;100.00
27984;BME280;15317;50.360;8.726;2023-09-07T20:37:38;99762.19;;;17.99;100.00
27984;BME280;15317;50.360;8.726;2023-09-07T20:42:42;99755.50;;;18.08;100.00
27984;BME280;15317;50.360;8.726;2023-09-07T20:47:46;99770.16;;;18.15;100.00
27984;BME280;15317;50.360;8.726;2023-09-07T20:52:50;99769.06;;;18.16;100.00
27984;BME280;15317;50.360;8.726;2023-09-07T20:57:54;99769.88;;;18.10;100.00
27984;BME280;15317;50.360;8.726;2023-09-07T21:02:58;99764.22;;;18.18;100.00
27984;BME280;15317;50.360;8.726;2023-09-07T21:08:02;99758.97;;;18.23;100.00
27984;BME280;15317;50.360;8.726;2023-09-07T21:13:07;99773.13;;;18.20;100.00
27984;BME280;15317;50.360;8.726;2023-09-07T21:18:10;99771.56;;;18.11;100.00
27984;BME280;15317;50.360;8.726;2023-09-07T21:23:14;99769.63;;;18.05;100.00
27984;BME280;15317;50.360;8.726;2023-09-07T21:28:20;99772.72;;;17.95;100.00
27984;BME280;15317;50.360;8.726;2023-09-07T21:33:23;99781.53;;;17.84;100.00
27984;BME280;15317;50.360;8.726;2023-09-07T21:38:27;99770.88;;;17.74;100.00
27984;BME280;15317;50.360;8.726;2023-09-07T21:43:32;99773.53;;;17.61;100.00
27984;BME280;15317;50.360;8.726;2023-09-07T21:48:35;99779.41;;;17.58;100.00
27984;BME280;15317;50.360;8.726;2023-09-07T21:53:38;99785.53;;;17.60;100.00
27984;BME280;15317;50.360;8.726;2023-09-07T21:58:44;99780.25;;;17.59;100.00
27984;BME280;15317;50.360;8.726;2023-09-07T22:03:47;99780.44;;;17.57;100.00
27984;BME280;15317;50.360;8.726;2023-09-07T22:08:51;99780.81;;;17.54;100.00
27984;BME280;15317;50.360;8.726;2023-09-07T22:13:57;99785.28;;;17.55;100.00
27984;BME280;15317;50.360;8.726;2023-09-07T22:19:00;99773.53;;;17.61;100.00
27984;BME280;15317;50.360;8.726;2023-09-07T22:24:04;99787.25;;;17.61;100.00
27984;BME280;15317;50.360;8.726;2023-09-07T22:29:09;99786.72;;;17.51;100.00
27984;BME280;15317;50.360;8.726;2023-09-07T22:34:13;99790.88;;;17.47;100.00
27984;BME280;15317;50.360;8.726;2023-09-07T22:39:17;99784.41;;;17.33;100.00
27984;BME280;15317;50.360;8.726;2023-09-07T22:44:21;99794.72;;;17.25;100.00
27984;BME280;15317;50.360;8.726;2023-09-07T22:49:25;99782.03;;;17.24;100.00
27984;BME280;15317;50.360;8.726;2023-09-07T22:54:29;99789.72;;;17.14;100.00
27984;BME280;15317;50.360;8.726;2023-09-07T22:59:33;99777.44;;;17.10;100.00
27984;BME280;15317;50.360;8.726;2023-09-07T23:04:37;99783.19;;;17.15;100.00
27984;BME280;15317;50.360;8.726;2023-09-07T23:09:40;99781.28;;;17.15;100.00
27984;BME280;15317;50.360;8.726;2023-09-07T23:14:48;99776.84;;;17.14;100.00
27984;BME280;15317;50.360;8.726;2023-09-07T23:19:52;99763.31;;;17.13;100.00
27984;BME280;15317;50.360;8.726;2023-09-07T23:24:55;99767.31;;;17.10;100.00
27984;BME280;15317;50.360;8.726;2023-09-07T23:30:00;99770.44;;;17.07;100.00
27984;BME280;15317;50.360;8.726;2023-09-07T23:35:08;99766.56;;;17.02;100.00
27984;BME280;15317;50.360;8.726;2023-09-07T23:40:12;99778.06;;;16.90;100.00
27984;BME280;15317;50.360;8.726;2023-09-07T23:45:17;99775.44;;;16.82;100.00
27984;BME280;15317;50.360;8.726;2023-09-07T23:50:21;99776.66;;;16.80;100.00
27984;BME280;15317;50.360;8.726;2023-09-07T23:55:24;99782.63;;;16.83;100.00
